Time;durP1;ratioP1;P1;durP2;ratioP2;P2;SDS_P1;SDS_P2;PMS_P1;PMS_P2;Temp;Humidity;BMP_temperature;BMP_pressure;BME280_temperature;BME280_humidity;BME280_pressure;Samples;Min_cycle;Max_cycle;Signal;HPM_P1;HPM_P2
2021/12/05 00:22:03;;;;;;;59.38;37.00;;;3.50;99.90;;;;;;4953252;29;20039;-74
2021/12/05 00:24:34;;;;;;;57.08;35.08;;;3.50;99.90;;;;;;4951607;29;20058;-73
2021/12/05 00:27:05;;;;;;;55.38;36.38;;;3.50;99.90;;;;;;4953356;29;20474;-73
2021/12/05 00:35:20;;;;;;;52.00;33.38;;;3.50;99.90;;;;;;4933348;29;20028;-75
2021/12/05 00:39:12;;;;;;;45.35;28.45;;;3.50;99.90;;;;;;4925804;29;20631;-74
2021/12/05 01:10:07;;;;;;;33.80;19.75;;;3.70;99.90;;;;;;4991237;28;20046;-72
2021/12/05 01:15:09;;;;;;;33.42;20.00;;;3.70;99.90;;;;;;4990848;28;20042;-74
2021/12/05 01:18:13;;;;;;;34.75;20.10;;;3.70;99.90;;;;;;4990429;28;20180;-73
2021/12/05 01:20:54;;;;;;;41.08;23.98;;;3.80;99.90;;;;;;4990378;28;20026;-74
2021/12/05 01:26:20;;;;;;;34.38;22.48;;;3.80;99.90;;;;;;4966232;28;20031;-74
2021/12/05 02:09:49;;;;;;;39.13;24.83;;;4.00;99.90;;;;;;4933082;29;20043;-75
2021/12/05 02:37:32;;;;;;;44.83;25.63;;;4.20;99.90;;;;;;5007472;28;20472;-75
2021/12/05 02:42:45;;;;;;;41.97;25.98;;;4.20;99.90;;;;;;4992537;28;20547;-75
2021/12/05 02:45:12;;;;;;;42.67;24.50;;;4.30;99.90;;;;;;5007664;28;20542;-73
2021/12/05 02:47:39;;;;;;;41.92;24.80;;;4.30;99.90;;;;;;4995114;28;20480;-75
2021/12/05 02:50:11;;;;;;;37.20;23.55;;;4.40;99.90;;;;;;5027671;28;20442;-74
2021/12/05 02:52:40;;;;;;;37.42;22.83;;;4.40;99.90;;;;;;5010849;28;20022;-73
2021/12/05 02:55:17;;;;;;;44.40;27.00;;;4.30;99.90;;;;;;5007701;28;20038;-75
2021/12/05 03:00:41;;;;;;;39.05;22.42;;;4.30;99.90;;;;;;5007446;28;20034;-74
2021/12/05 03:03:18;;;;;;;37.10;23.27;;;4.20;99.90;;;;;;5007809;28;20034;-74
2021/12/05 03:05:48;;;;;;;35.33;22.23;;;4.20;99.90;;;;;;4992347;28;20105;-73
2021/12/05 03:08:14;;;;;;;33.92;20.55;;;4.30;99.90;;;;;;4991503;28;20058;-75
2021/12/05 03:10:40;;;;;;;41.30;25.55;;;4.20;99.90;;;;;;4991637;28;20101;-74
2021/12/05 03:13:06;;;;;;;39.30;24.27;;;4.00;99.90;;;;;;4996093;28;20077;-73
2021/12/05 03:15:33;;;;;;;32.45;21.90;;;4.10;99.90;;;;;;5009877;28;20050;-74
2021/12/05 03:17:59;;;;;;;34.45;22.15;;;4.10;99.90;;;;;;4995384;28;20077;-74
2021/12/05 03:20:25;;;;;;;34.53;22.02;;;4.10;99.90;;;;;;4995160;28;20050;-75
2021/12/05 03:22:52;;;;;;;33.65;21.15;;;4.10;99.90;;;;;;4995057;28;20494;-75
2021/12/05 03:25:19;;;;;;;35.10;21.92;;;4.10;99.90;;;;;;5009849;28;20515;-74
2021/12/05 03:27:45;;;;;;;37.78;22.80;;;4.10;99.90;;;;;;4994759;28;20026;-73
2021/12/05 03:30:14;;;;;;;35.58;23.00;;;4.20;99.90;;;;;;4994176;28;20247;-74
2021/12/05 03:32:42;;;;;;;36.00;21.65;;;4.20;99.90;;;;;;5010540;28;20027;-75
2021/12/05 03:35:10;;;;;;;35.95;24.10;;;4.20;99.90;;;;;;5004843;28;20038;-75
2021/12/05 03:37:38;;;;;;;39.85;24.02;;;4.30;99.90;;;;;;5010453;28;20124;-75
2021/12/05 03:40:08;;;;;;;36.85;23.33;;;4.30;99.90;;;;;;4994533;28;20026;-75
2021/12/05 03:42:35;;;;;;;40.40;25.55;;;4.30;99.90;;;;;;4994614;28;20038;-75
2021/12/05 03:45:08;;;;;;;50.88;31.23;;;4.30;99.90;;;;;;4993770;28;20169;-74
2021/12/05 03:47:34;;;;;;;54.00;33.70;;;4.30;99.90;;;;;;4993642;28;20026;-74
2021/12/05 03:50:00;;;;;;;43.70;28.30;;;4.30;99.90;;;;;;5010380;28;20108;-74
2021/12/05 03:52:28;;;;;;;48.17;30.45;;;4.30;99.90;;;;;;5010370;28;20058;-74
2021/12/05 03:54:54;;;;;;;45.65;27.98;;;4.30;99.90;;;;;;5009659;28;20413;-74
2021/12/05 03:57:20;;;;;;;45.75;29.55;;;4.30;99.90;;;;;;5010441;28;20651;-74
2021/12/05 03:59:46;;;;;;;42.22;25.60;;;4.40;99.90;;;;;;5010415;28;20081;-71
2021/12/05 04:02:12;;;;;;;42.88;27.30;;;4.40;99.90;;;;;;4992699;28;20026;-74
2021/12/05 04:04:40;;;;;;;37.00;25.80;;;4.40;99.90;;;;;;5009888;28;20652;-74
2021/12/05 04:07:09;;;;;;;41.55;28.08;;;4.40;99.90;;;;;;5009633;28;20444;-74
2021/12/05 04:09:36;;;;;;;48.22;31.60;;;4.30;99.90;;;;;;5010137;28;20077;-74
2021/12/05 04:12:04;;;;;;;42.30;28.08;;;4.40;99.90;;;;;;5010142;28;20034;-75
2021/12/05 04:14:37;;;;;;;47.55;28.40;;;4.40;99.90;;;;;;4994754;28;20030;-74
2021/12/05 04:17:06;;;;;;;40.33;27.50;;;4.50;99.90;;;;;;4994515;28;20034;-74
2021/12/05 04:19:32;;;;;;;39.03;25.83;;;4.50;99.90;;;;;;4993279;28;20031;-74
2021/12/05 04:22:00;;;;;;;48.85;28.90;;;4.60;99.90;;;;;;5009319;28;20054;-73
2021/12/05 04:24:27;;;;;;;46.17;30.85;;;4.60;99.90;;;;;;5008970;28;20105;-74
2021/12/05 04:26:53;;;;;;;38.90;23.83;;;4.50;99.90;;;;;;4994884;28;20033;-74
2021/12/05 04:29:19;;;;;;;41.78;25.13;;;4.60;99.90;;;;;;5009540;28;20069;-74
2021/12/05 04:31:46;;;;;;;42.15;24.60;;;4.50;99.90;;;;;;4994989;28;20045;-74
2021/12/05 04:34:13;;;;;;;40.85;25.90;;;4.50;99.90;;;;;;4993571;28;20031;-74
2021/12/05 04:36:41;;;;;;;43.35;26.85;;;4.50;99.90;;;;;;4994695;28;20055;-75
2021/12/05 04:39:08;;;;;;;46.53;28.90;;;4.40;99.90;;;;;;4993460;28;20414;-75
2021/12/05 04:41:37;;;;;;;43.78;27.00;;;4.40;99.90;;;;;;4994295;28;20037;-73
2021/12/05 04:44:04;;;;;;;41.13;25.20;;;4.30;99.90;;;;;;4993181;28;20030;-75
2021/12/05 04:46:30;;;;;;;37.83;24.23;;;4.20;99.90;;;;;;4994460;28;20030;-74
2021/12/05 04:48:57;;;;;;;42.83;24.65;;;4.20;99.90;;;;;;4992790;28;20022;-74
2021/12/05 04:51:32;;;;;;;39.85;25.08;;;4.20;99.90;;;;;;4992913;28;20397;-75
2021/12/05 04:53:58;;;;;;;40.80;25.65;;;4.20;99.90;;;;;;5009142;28;20027;-75
2021/12/05 04:56:26;;;;;;;43.10;27.65;;;4.20;99.90;;;;;;5009076;28;20034;-75
2021/12/05 04:58:54;;;;;;;50.13;31.63;;;4.10;99.90;;;;;;5009028;28;20021;-72
2021/12/05 05:01:25;;;;;;;44.80;29.15;;;4.00;99.90;;;;;;5008842;28;20049;-74
2021/12/05 05:03:51;;;;;;;47.53;29.58;;;4.00;99.90;;;;;;4993923;28;20038;-72
2021/12/05 05:06:19;;;;;;;50.63;30.42;;;4.00;99.90;;;;;;4993813;28;20530;-74
2021/12/05 05:08:52;;;;;;;47.90;27.55;;;4.00;99.90;;;;;;4992741;28;20452;-73
2021/12/05 05:11:20;;;;;;;48.35;28.20;;;3.90;99.90;;;;;;4993214;28;20588;-74
2021/12/05 05:13:47;;;;;;;45.30;28.95;;;3.90;99.90;;;;;;4993665;28;20027;-74
2021/12/05 05:16:15;;;;;;;47.78;30.17;;;3.90;99.90;;;;;;4993263;28;20064;-74
2021/12/05 05:18:50;;;;;;;41.47;27.52;;;4.00;99.90;;;;;;4993116;28;20034;-74
2021/12/05 05:47:41;;;;;;;44.70;27.92;;;4.40;99.90;;;;;;4992783;28;20069;-73
2021/12/05 05:50:07;;;;;;;40.00;24.58;;;4.40;99.90;;;;;;4992850;28;20043;-76
2021/12/05 05:52:33;;;;;;;36.03;23.50;;;4.30;99.90;;;;;;4993335;28;20079;-76
2021/12/05 05:55:00;;;;;;;40.50;25.40;;;4.30;99.90;;;;;;4993110;28;20034;-75
2021/12/05 06:00:12;;;;;;;61.28;37.95;;;4.40;99.90;;;;;;4992949;28;20026;-75
2021/12/05 06:05:29;;;;;;;49.22;32.65;;;4.20;99.90;;;;;;4993314;28;20053;-76
2021/12/05 06:07:55;;;;;;;40.63;26.55;;;4.20;99.90;;;;;;5000630;28;20022;-74
2021/12/05 06:10:24;;;;;;;36.90;23.00;;;4.30;99.90;;;;;;4992856;28;20449;-74
2021/12/05 06:12:51;;;;;;;46.17;26.80;;;4.30;99.90;;;;;;5007769;28;20030;-76
2021/12/05 06:15:19;;;;;;;46.85;26.90;;;4.50;99.90;;;;;;4992431;28;20085;-75
2021/12/05 06:17:46;;;;;;;41.72;23.98;;;4.50;99.90;;;;;;4993289;28;20026;-74
2021/12/05 06:20:16;;;;;;;36.58;25.10;;;4.50;99.90;;;;;;4992851;28;20492;-75
2021/12/05 06:22:43;;;;;;;47.35;33.55;;;4.60;99.90;;;;;;4992503;28;20065;-75
2021/12/05 06:25:14;;;;;;;53.53;34.40;;;4.50;99.90;;;;;;4992594;28;20069;-74
2021/12/05 06:27:41;;;;;;;42.63;28.60;;;4.50;99.90;;;;;;4992478;28;20030;-75
2021/12/05 06:30:13;;;;;;;41.83;24.42;;;4.40;99.90;;;;;;4992623;28;20042;-75
2021/12/05 06:38:07;;;;;;;45.40;28.65;;;4.40;99.90;;;;;;4991815;28;20081;-75
2021/12/05 06:40:48;;;;;;;39.58;29.50;;;4.40;99.90;;;;;;4991748;28;20023;-76
2021/12/05 06:46:18;;;;;;;40.17;25.42;;;4.40;99.90;;;;;;4992847;28;20034;-74
2021/12/05 06:48:45;;;;;;;34.40;22.70;;;4.40;99.90;;;;;;4996544;28;20469;-72
2021/12/05 06:51:16;;;;;;;38.75;24.98;;;4.30;99.90;;;;;;4996246;28;20030;-74
2021/12/05 06:53:43;;;;;;;41.90;23.90;;;4.40;99.90;;;;;;4996601;28;20026;-75
2021/12/05 06:56:10;;;;;;;44.17;29.63;;;4.40;99.90;;;;;;4996864;28;20088;-73
2021/12/05 06:58:36;;;;;;;54.20;36.80;;;4.40;99.90;;;;;;4995940;28;20030;-73
2021/12/05 07:01:07;;;;;;;39.45;25.00;;;4.50;99.90;;;;;;4995671;28;20527;-74
2021/12/05 07:03:35;;;;;;;48.72;30.73;;;4.50;99.90;;;;;;4996226;28;20400;-74
2021/12/05 07:06:10;;;;;;;45.25;26.88;;;4.60;99.90;;;;;;4996149;28;20045;-74
2021/12/05 07:08:39;;;;;;;42.88;25.70;;;4.60;99.90;;;;;;4994523;28;20136;-74
2021/12/05 07:11:15;;;;;;;38.70;24.65;;;4.60;99.90;;;;;;4995939;28;20640;-73
2021/12/05 07:18:47;;;;;;;34.25;23.50;;;4.60;99.90;;;;;;4995981;28;20358;-72
2021/12/05 07:23:54;;;;;;;45.27;29.97;;;4.60;99.90;;;;;;4994807;28;20045;-73
2021/12/05 07:42:41;;;;;;;78.65;49.83;;;5.00;99.90;;;;;;4995814;28;20027;-75
2021/12/05 07:45:14;;;;;;;63.42;39.28;;;5.10;99.90;;;;;;5010584;28;20077;-73
2021/12/05 07:47:44;;;;;;;65.75;44.22;;;5.10;99.90;;;;;;4995734;28;20035;-72
2021/12/05 07:50:12;;;;;;;78.30;47.17;;;5.10;99.90;;;;;;4995627;28;20117;-73
2021/12/05 07:52:45;;;;;;;61.58;39.72;;;5.00;99.90;;;;;;4994755;28;20026;-74
2021/12/05 07:55:31;;;;;;;48.17;28.73;;;5.10;99.90;;;;;;4995266;28;20022;-72
2021/12/05 08:01:20;;;;;;;62.20;41.00;;;5.10;99.90;;;;;;5000527;28;20034;-73
2021/12/05 08:14:49;;;;;;;130.48;90.13;;;5.20;99.90;;;;;;4993732;28;20038;-74
2021/12/05 08:17:18;;;;;;;156.07;102.45;;;5.30;99.90;;;;;;4994679;28;20039;-73
2021/12/05 08:19:45;;;;;;;85.55;63.65;;;5.30;99.90;;;;;;4994561;28;20080;-73
2021/12/05 08:22:12;;;;;;;80.43;56.63;;;5.30;99.90;;;;;;4993464;28;20031;-73
2021/12/05 08:24:40;;;;;;;78.50;51.13;;;5.30;99.90;;;;;;4994787;28;20046;-74
2021/12/05 08:27:14;;;;;;;53.53;36.92;;;5.30;99.90;;;;;;4991986;28;20045;-68
2021/12/05 08:29:50;;;;;;;39.30;24.00;;;5.30;99.90;;;;;;5022705;28;20038;-76
2021/12/05 08:32:32;;;;;;;45.70;29.23;;;5.30;99.90;;;;;;4993622;28;20549;-73
2021/12/05 08:35:35;;;;;;;43.60;31.20;;;5.40;99.90;;;;;;4991720;28;20101;-75
2021/12/05 09:40:12;;;;;;;33.72;23.13;;;6.20;99.90;;;;;;4965223;28;20122;-68
2021/12/05 09:51:23;;;;;;;45.72;29.25;;;6.20;99.90;;;;;;4971867;28;20121;-70
2021/12/05 10:02:34;;;;;;;72.45;39.92;;;6.20;99.90;;;;;;4959006;28;20019;-72
2021/12/05 10:38:51;;;;;;;49.88;33.83;;;6.20;99.90;;;;;;4995029;28;20778;-72
2021/12/05 10:43:53;;;;;;;52.88;35.00;;;6.30;99.90;;;;;;4994450;28;20042;-72
2021/12/05 10:46:23;;;;;;;51.50;34.15;;;6.30;99.90;;;;;;4994450;28;20432;-71
2021/12/05 10:48:55;;;;;;;54.58;36.40;;;6.20;99.90;;;;;;4994444;28;20408;-72
2021/12/05 10:51:24;;;;;;;65.50;39.50;;;6.20;99.90;;;;;;4994431;28;20416;-72
2021/12/05 10:53:57;;;;;;;55.25;34.38;;;6.20;99.90;;;;;;4994641;28;20030;-72
2021/12/05 10:56:25;;;;;;;49.65;32.67;;;6.20;99.90;;;;;;4994157;28;20069;-72
2021/12/05 10:58:57;;;;;;;61.78;37.03;;;6.30;99.90;;;;;;4977382;28;20027;-72
2021/12/05 11:01:41;;;;;;;42.47;25.73;;;6.20;99.90;;;;;;4976128;28;20038;-72
2021/12/05 11:04:09;;;;;;;42.35;28.90;;;6.20;99.90;;;;;;4977256;28;20030;-72
2021/12/05 11:06:50;;;;;;;45.15;30.05;;;6.10;99.90;;;;;;4976976;28;20022;-73
2021/12/05 11:09:21;;;;;;;55.42;35.00;;;6.20;99.90;;;;;;4977045;28;20389;-72
2021/12/05 11:11:51;;;;;;;83.72;56.55;;;6.30;99.90;;;;;;4976348;28;20049;-72
2021/12/05 11:14:26;;;;;;;126.45;92.00;;;6.30;99.90;;;;;;4976692;28;20043;-72
2021/12/05 11:16:58;;;;;;;70.47;46.53;;;6.40;99.90;;;;;;4976595;28;20058;-73
2021/12/05 11:19:26;;;;;;;69.95;47.22;;;6.30;99.90;;;;;;4976987;28;20439;-73
2021/12/05 11:21:56;;;;;;;53.42;36.10;;;6.30;99.90;;;;;;4977105;28;20059;-73
2021/12/05 11:24:27;;;;;;;53.67;34.97;;;6.30;99.90;;;;;;4976895;28;20030;-72
2021/12/05 11:27:15;;;;;;;42.15;28.50;;;6.20;99.90;;;;;;4976529;28;20030;-73
2021/12/05 11:30:02;;;;;;;50.70;33.50;;;6.30;99.90;;;;;;4976484;28;20106;-73
2021/12/05 11:32:42;;;;;;;54.05;34.42;;;6.20;99.90;;;;;;4976541;28;20039;-73
2021/12/05 11:35:19;;;;;;;58.40;41.75;;;6.20;99.90;;;;;;4976716;28;20035;-72
2021/12/05 11:38:03;;;;;;;62.03;43.40;;;6.20;99.90;;;;;;4976298;28;20035;-72
2021/12/05 11:40:41;;;;;;;62.95;42.03;;;6.30;99.90;;;;;;4976364;28;20023;-73
2021/12/05 11:43:07;;;;;;;72.03;45.55;;;6.30;99.90;;;;;;4976618;28;20042;-72
2021/12/05 11:45:55;;;;;;;72.15;47.83;;;6.20;99.90;;;;;;4976422;28;20034;-72
2021/12/05 11:48:30;;;;;;;54.83;38.05;;;6.20;99.90;;;;;;4976686;28;20026;-72
2021/12/05 11:50:58;;;;;;;70.82;43.53;;;6.10;99.90;;;;;;4976571;28;20043;-72
2021/12/05 11:53:34;;;;;;;49.97;34.53;;;6.10;99.90;;;;;;4976578;28;20105;-72
2021/12/05 11:56:00;;;;;;;89.47;58.05;;;6.10;99.90;;;;;;4976476;28;20033;-71
2021/12/05 11:58:26;;;;;;;47.92;32.85;;;6.00;99.90;;;;;;4976502;28;20027;-73
2021/12/05 12:00:52;;;;;;;55.45;38.83;;;6.00;99.90;;;;;;4976386;28;20504;-70
2021/12/05 12:03:33;;;;;;;64.43;45.22;;;5.90;99.90;;;;;;4976292;28;20097;-72
2021/12/05 12:05:58;;;;;;;64.22;39.78;;;5.90;99.90;;;;;;4976212;28;20084;-73
2021/12/05 12:08:24;;;;;;;55.67;36.38;;;6.00;99.90;;;;;;4976166;28;20106;-73
2021/12/05 12:10:58;;;;;;;51.47;33.65;;;6.00;99.90;;;;;;4975863;28;20045;-71
2021/12/05 12:13:34;;;;;;;56.25;40.58;;;6.00;99.90;;;;;;4976074;28;20027;-73
2021/12/05 12:16:06;;;;;;;63.42;41.72;;;6.10;99.90;;;;;;4975800;28;20522;-71
2021/12/05 12:18:36;;;;;;;74.97;47.47;;;6.10;99.90;;;;;;4975953;28;20030;-72
2021/12/05 12:21:26;;;;;;;74.25;50.55;;;6.20;99.90;;;;;;4976319;28;20031;-73
2021/12/05 12:23:55;;;;;;;60.00;40.10;;;6.30;99.90;;;;;;4975891;28;20027;-73
2021/12/05 12:26:21;;;;;;;82.80;55.78;;;6.20;99.90;;;;;;4975110;28;20027;-73
2021/12/05 12:28:47;;;;;;;73.13;52.92;;;6.30;99.90;;;;;;4975785;28;20126;-70
2021/12/05 12:31:22;;;;;;;56.42;39.60;;;6.20;99.90;;;;;;4990440;28;20366;-72
2021/12/05 12:33:57;;;;;;;56.75;40.90;;;6.20;99.90;;;;;;4975532;28;20023;-73
2021/12/05 12:36:42;;;;;;;63.63;41.65;;;6.10;99.90;;;;;;4975825;28;20034;-72
2021/12/05 12:39:17;;;;;;;143.60;106.18;;;6.10;99.90;;;;;;4975601;28;20065;-69
2021/12/05 12:42:13;;;;;;;137.57;96.80;;;6.20;99.90;;;;;;4974593;28;20026;-72
2021/12/05 12:44:57;;;;;;;73.28;47.78;;;6.20;99.90;;;;;;4974867;28;20585;-71
2021/12/05 12:47:50;;;;;;;56.17;34.15;;;6.30;99.90;;;;;;4975117;28;20626;-70
2021/12/05 12:50:36;;;;;;;63.15;36.80;;;6.30;99.90;;;;;;4974646;28;20046;-71
2021/12/05 12:53:12;;;;;;;58.92;37.13;;;6.40;99.90;;;;;;4975165;28;20520;-72
2021/12/05 12:55:42;;;;;;;60.88;39.55;;;6.50;99.90;;;;;;4975012;28;20521;-70
2021/12/05 12:58:12;;;;;;;58.17;37.25;;;6.50;99.90;;;;;;4975200;28;20027;-72
2021/12/05 13:00:42;;;;;;;57.13;32.65;;;6.60;99.90;;;;;;4974748;28;20034;-72
2021/12/05 13:03:28;;;;;;;45.47;29.80;;;6.60;99.90;;;;;;4974587;28;20051;-72
2021/12/05 13:11:53;;;;;;;46.10;30.98;;;6.80;99.90;;;;;;4974559;28;20039;-72
2021/12/05 13:14:19;;;;;;;40.47;29.83;;;6.90;99.90;;;;;;4974806;28;20043;-72
2021/12/05 13:16:48;;;;;;;40.55;27.55;;;6.90;99.90;;;;;;4974779;28;20485;-69
2021/12/05 13:19:22;;;;;;;46.28;29.00;;;7.00;99.90;;;;;;4974997;28;20031;-72
2021/12/05 13:21:52;;;;;;;42.13;28.63;;;7.00;99.90;;;;;;4974702;28;20035;-72
2021/12/05 13:24:25;;;;;;;42.65;28.02;;;7.00;99.90;;;;;;4974339;28;20019;-72
2021/12/05 13:27:03;;;;;;;41.30;28.40;;;7.00;99.90;;;;;;4974761;28;20049;-72
2021/12/05 13:29:38;;;;;;;52.33;32.90;;;7.00;99.90;;;;;;4974728;28;20432;-71
2021/12/05 13:32:11;;;;;;;51.10;33.65;;;7.00;99.90;;;;;;4974651;28;20142;-71
2021/12/05 13:34:41;;;;;;;47.83;30.50;;;7.00;99.90;;;;;;4974196;28;20053;-72
2021/12/05 13:37:12;;;;;;;49.80;32.03;;;7.00;99.90;;;;;;4974395;28;20117;-71
2021/12/05 13:39:48;;;;;;;60.80;36.92;;;7.00;99.90;;;;;;4973675;28;20561;-70
2021/12/05 13:42:32;;;;;;;52.72;34.85;;;7.10;99.90;;;;;;4974404;28;20386;-70
2021/12/05 13:45:04;;;;;;;48.53;34.35;;;7.10;99.90;;;;;;4973263;28;20074;-71
2021/12/05 13:47:39;;;;;;;55.78;36.55;;;7.10;99.90;;;;;;4986419;28;20038;-70
2021/12/05 13:50:25;;;;;;;60.85;38.60;;;7.10;99.90;;;;;;4993502;28;20388;-70
2021/12/05 13:52:59;;;;;;;52.20;37.53;;;7.10;99.90;;;;;;4993429;28;20031;-70
2021/12/05 13:55:46;;;;;;;50.78;33.10;;;7.20;99.90;;;;;;4993094;28;20027;-69
2021/12/05 13:58:41;;;;;;;47.88;33.63;;;7.20;99.90;;;;;;4993667;28;20069;-69
2021/12/05 14:01:16;;;;;;;69.47;45.28;;;7.20;99.90;;;;;;4993444;28;20034;-69
2021/12/05 14:03:48;;;;;;;72.00;51.58;;;7.20;99.90;;;;;;4992936;28;20019;-69
2021/12/05 14:06:49;;;;;;;63.78;41.30;;;7.20;99.90;;;;;;4993021;28;20053;-68
2021/12/05 14:09:31;;;;;;;59.05;40.15;;;7.20;99.90;;;;;;4992397;28;20060;-68
2021/12/05 14:12:00;;;;;;;60.72;41.70;;;7.20;99.90;;;;;;4992563;28;20038;-70
2021/12/05 14:14:41;;;;;;;63.08;41.13;;;7.20;99.90;;;;;;5005261;28;20030;-72
2021/12/05 14:17:22;;;;;;;54.83;36.33;;;7.10;99.90;;;;;;5012957;28;20069;-70
2021/12/05 14:19:57;;;;;;;63.55;40.95;;;7.10;99.90;;;;;;5012550;28;20034;-70
2021/12/05 14:22:26;;;;;;;64.90;41.97;;;7.10;99.90;;;;;;5012863;28;20026;-70
2021/12/05 14:24:56;;;;;;;54.17;34.00;;;7.10;99.90;;;;;;5012801;28;20024;-67
2021/12/05 14:27:26;;;;;;;51.95;38.15;;;7.10;99.90;;;;;;5012870;28;20064;-68
2021/12/05 14:29:52;;;;;;;52.78;35.83;;;7.10;99.90;;;;;;5012759;28;20030;-66
2021/12/05 14:32:24;;;;;;;55.50;38.15;;;7.00;99.90;;;;;;5012368;28;20546;-68
2021/12/05 14:34:53;;;;;;;63.35;38.30;;;7.00;99.90;;;;;;5012360;28;20030;-71
2021/12/05 14:37:21;;;;;;;52.33;36.47;;;7.10;99.90;;;;;;5012863;28;20015;-72
2021/12/05 14:39:53;;;;;;;53.90;33.25;;;7.00;99.90;;;;;;5012862;28;20440;-69
2021/12/05 14:42:23;;;;;;;47.38;30.42;;;7.00;99.90;;;;;;5012574;28;20473;-71
2021/12/05 14:44:57;;;;;;;49.63;31.75;;;7.00;99.90;;;;;;5012317;28;20034;-72
2021/12/05 14:47:29;;;;;;;51.00;35.72;;;7.10;99.90;;;;;;5011536;28;20030;-70
2021/12/05 14:50:02;;;;;;;52.03;37.10;;;7.10;99.90;;;;;;5012710;28;20531;-71
2021/12/05 14:52:34;;;;;;;64.85;46.58;;;7.10;99.90;;;;;;5012633;28;20041;-71
2021/12/05 14:55:02;;;;;;;75.45;56.35;;;7.10;99.90;;;;;;5012583;28;20030;-69
2021/12/05 14:57:32;;;;;;;75.57;55.60;;;7.10;99.90;;;;;;5012653;28;20076;-70
2021/12/05 15:00:10;;;;;;;74.50;53.10;;;7.10;99.90;;;;;;5012470;28;20476;-71
2021/12/05 15:02:37;;;;;;;65.80;46.38;;;7.10;99.90;;;;;;5012494;28;20103;-72
2021/12/05 15:05:07;;;;;;;69.18;49.00;;;7.10;99.90;;;;;;5012470;28;20484;-72
2021/12/05 15:07:33;;;;;;;65.15;46.95;;;7.10;99.90;;;;;;5013449;28;20038;-71
2021/12/05 15:09:59;;;;;;;67.57;49.15;;;7.10;99.90;;;;;;5015710;28;20041;-71
2021/12/05 15:12:31;;;;;;;65.13;44.40;;;7.10;99.90;;;;;;5016091;28;20433;-71
2021/12/05 15:14:59;;;;;;;;;;;7.10;99.90;;;;;;5015934;28;20045;-71
2021/12/05 15:17:38;;;;;;;68.20;46.40;;;7.10;99.90;;;;;;5015320;28;19949;-71
2021/12/05 15:20:10;;;;;;;65.53;45.03;;;7.10;99.90;;;;;;5016407;28;20026;-71
2021/12/05 15:22:37;;;;;;;58.00;40.83;;;7.00;99.90;;;;;;5015936;28;20044;-68
2021/12/05 15:25:09;;;;;;;63.13;41.58;;;7.00;99.90;;;;;;5015693;28;20056;-71
2021/12/05 15:27:37;;;;;;;63.33;40.45;;;7.00;99.90;;;;;;5015460;28;20034;-68
2021/12/05 15:30:25;;;;;;;70.97;42.78;;;7.00;99.90;;;;;;5015699;28;20618;-70
2021/12/05 15:32:55;;;;;;;66.78;41.00;;;6.90;99.90;;;;;;5015708;28;20038;-71
2021/12/05 15:35:22;;;;;;;59.95;40.17;;;6.90;99.90;;;;;;5015672;28;20026;-71
2021/12/05 15:37:54;;;;;;;64.50;38.97;;;7.00;99.90;;;;;;5015480;28;20026;-71
2021/12/05 15:40:21;;;;;;;56.83;36.45;;;7.00;99.90;;;;;;5015475;28;20033;-73
2021/12/05 15:42:47;;;;;;;57.20;38.25;;;6.90;99.90;;;;;;5014894;28;20025;-72
2021/12/05 15:45:16;;;;;;;53.47;35.22;;;6.90;99.90;;;;;;5014972;28;20044;-73
2021/12/05 15:47:46;;;;;;;52.78;36.20;;;6.90;99.90;;;;;;5015229;28;20041;-72
2021/12/05 15:50:23;;;;;;;56.60;37.38;;;6.90;99.90;;;;;;5015136;28;20472;-73
2021/12/05 15:52:49;;;;;;;58.45;38.63;;;6.80;99.90;;;;;;5014839;28;20022;-72
2021/12/05 15:55:25;;;;;;;55.88;35.17;;;6.80;99.90;;;;;;5015224;28;20026;-72
2021/12/05 15:57:55;;;;;;;53.92;35.42;;;6.80;99.90;;;;;;5015393;28;20034;-73
2021/12/05 16:00:26;;;;;;;60.67;36.67;;;6.80;99.90;;;;;;5015037;28;20242;-71
2021/12/05 16:03:04;;;;;;;63.45;42.08;;;6.80;99.90;;;;;;5015318;28;20093;-73
2021/12/05 16:05:31;;;;;;;71.00;45.88;;;6.80;99.90;;;;;;5014924;28;20400;-70
2021/12/05 16:08:28;;;;;;;69.25;43.97;;;6.80;99.90;;;;;;5014885;28;20132;-71
2021/12/05 16:10:58;;;;;;;66.57;40.92;;;6.80;99.90;;;;;;5015469;28;20095;-72
2021/12/05 16:13:30;;;;;;;68.97;44.05;;;6.80;99.90;;;;;;5032670;28;20083;-72
2021/12/05 16:16:08;;;;;;;54.33;37.10;;;6.80;99.90;;;;;;5032022;28;20380;-72
2021/12/05 16:18:36;;;;;;;49.33;35.13;;;6.80;99.90;;;;;;5031862;28;20492;-73
2021/12/05 16:21:06;;;;;;;59.95;37.50;;;6.80;99.90;;;;;;5032103;28;20034;-73
2021/12/05 16:23:35;;;;;;;54.33;36.80;;;6.80;99.90;;;;;;5032694;28;20111;-72
2021/12/05 16:26:11;;;;;;;57.72;38.97;;;6.80;99.90;;;;;;5032430;28;20056;-72
2021/12/05 16:28:41;;;;;;;56.13;36.42;;;6.80;99.90;;;;;;5032276;28;20115;-73
2021/12/05 16:31:15;;;;;;;54.92;37.47;;;6.80;99.90;;;;;;5032220;28;20056;-72
2021/12/05 16:33:45;;;;;;;54.33;37.22;;;6.80;99.90;;;;;;5031661;28;20045;-72
2021/12/05 16:36:11;;;;;;;48.92;33.55;;;6.70;99.90;;;;;;5031705;28;20037;-73
2021/12/05 16:38:45;;;;;;;50.25;35.30;;;6.80;99.90;;;;;;5032104;28;20543;-72
2021/12/05 16:41:27;;;;;;;55.13;34.08;;;6.70;99.90;;;;;;5032332;28;20117;-72
2021/12/05 16:43:59;;;;;;;48.83;33.22;;;6.70;99.90;;;;;;5031979;28;20392;-72
2021/12/05 16:46:32;;;;;;;47.40;31.88;;;6.70;99.90;;;;;;5029322;28;20045;-72
2021/12/05 16:49:02;;;;;;;49.33;34.15;;;6.70;99.90;;;;;;5014414;28;20030;-72
2021/12/05 16:51:35;;;;;;;49.58;34.97;;;6.70;99.90;;;;;;5014426;28;20041;-74
2021/12/05 16:54:28;;;;;;;54.08;33.65;;;6.70;99.90;;;;;;5014183;28;20471;-73
2021/12/05 16:57:01;;;;;;;48.40;33.20;;;6.80;99.90;;;;;;5013737;28;20030;-71
2021/12/05 16:59:39;;;;;;;47.78;32.33;;;6.70;99.90;;;;;;5014059;28;20487;-71
2021/12/05 17:02:12;;;;;;;50.47;34.60;;;6.70;99.90;;;;;;5013965;28;20038;-71
2021/12/05 17:04:46;;;;;;;56.42;34.13;;;6.70;99.90;;;;;;5013918;28;20022;-72
2021/12/05 17:07:15;;;;;;;56.95;37.20;;;6.80;99.90;;;;;;5014094;28;20105;-72
2021/12/05 17:09:41;;;;;;;52.40;36.83;;;6.80;99.90;;;;;;5014141;28;20487;-72
2021/12/05 17:12:26;;;;;;;62.22;43.25;;;6.80;99.90;;;;;;5013786;28;20067;-73
2021/12/05 17:15:20;;;;;;;59.03;43.08;;;6.80;99.90;;;;;;5010542;28;20515;-72
2021/12/05 17:17:47;;;;;;;56.67;39.65;;;6.80;99.90;;;;;;4993541;28;20049;-72
2021/12/05 17:20:31;;;;;;;53.50;38.13;;;6.80;99.90;;;;;;4994327;28;20105;-73
2021/12/05 17:23:03;;;;;;;53.08;35.13;;;6.90;99.90;;;;;;4994408;28;20469;-73
2021/12/05 17:25:51;;;;;;;55.00;38.63;;;6.90;99.90;;;;;;4993371;28;20019;-71
2021/12/05 17:29:00;;;;;;;57.25;40.17;;;6.90;99.90;;;;;;4990407;28;20027;-71
2021/12/05 17:31:31;;;;;;;71.07;47.67;;;7.00;99.90;;;;;;4972058;28;20558;-71
2021/12/05 17:34:01;;;;;;;76.80;54.17;;;7.00;99.90;;;;;;4972568;28;20034;-70
2021/12/05 17:36:32;;;;;;;71.75;49.88;;;7.00;99.90;;;;;;4972397;28;20062;-70
2021/12/05 17:39:16;;;;;;;73.10;48.55;;;7.00;99.90;;;;;;4972629;28;20037;-71
2021/12/05 17:41:53;;;;;;;78.65;52.92;;;7.10;99.90;;;;;;4972070;28;20122;-70
2021/12/05 17:44:21;;;;;;;67.85;44.72;;;7.00;99.90;;;;;;4972127;28;20034;-71
2021/12/05 17:46:49;;;;;;;63.03;40.78;;;7.10;99.90;;;;;;4972099;28;20030;-73
2021/12/05 17:49:17;;;;;;;58.30;39.05;;;7.10;99.90;;;;;;4970087;28;20043;-73
2021/12/05 17:51:44;;;;;;;51.85;34.67;;;7.00;99.90;;;;;;4971266;28;20512;-74
2021/12/05 17:54:32;;;;;;;61.55;40.75;;;7.00;99.90;;;;;;4971765;28;20061;-73
2021/12/05 17:57:06;;;;;;;71.15;49.25;;;7.00;99.90;;;;;;4970419;28;20509;-73
2021/12/05 18:02:42;;;;;;;67.85;43.55;;;6.80;99.90;;;;;;4970455;28;20560;-74
2021/12/05 18:05:17;;;;;;;51.35;35.38;;;6.70;99.90;;;;;;4970798;28;20174;-73
2021/12/05 18:07:43;;;;;;;54.03;37.03;;;6.80;99.90;;;;;;4975286;28;20057;-72
2021/12/05 18:10:11;;;;;;;55.15;34.55;;;6.80;99.90;;;;;;4991421;28;20026;-73
2021/12/05 18:12:38;;;;;;;50.67;35.10;;;6.70;99.90;;;;;;4991990;28;20022;-73
2021/12/05 18:15:13;;;;;;;53.40;36.08;;;6.70;99.90;;;;;;4992327;28;20050;-74
2021/12/05 18:17:40;;;;;;;68.40;45.22;;;6.80;99.90;;;;;;4991907;28;20472;-72
2021/12/05 18:20:11;;;;;;;70.95;47.85;;;6.80;99.90;;;;;;4991884;28;20037;-73
2021/12/05 18:22:38;;;;;;;51.85;36.65;;;6.80;99.90;;;;;;4992495;28;20023;-71
2021/12/05 18:25:05;;;;;;;57.63;41.40;;;6.80;99.90;;;;;;4993052;28;20022;-71
2021/12/05 18:27:31;;;;;;;62.85;43.03;;;6.80;99.90;;;;;;4992834;28;20027;-72
2021/12/05 18:29:57;;;;;;;56.05;40.53;;;6.90;99.90;;;;;;4992558;28;20022;-72
2021/12/05 18:32:23;;;;;;;76.18;51.08;;;6.90;99.90;;;;;;4990374;28;20034;-72
2021/12/05 18:34:50;;;;;;;223.98;117.30;;;6.80;99.90;;;;;;4991585;28;20404;-70
2021/12/05 18:37:16;;;;;;;153.88;95.90;;;6.80;99.90;;;;;;4993100;28;20118;-70